sensor_id;sensor_type;location;lat;lon;timestamp;pressure;altitude;pressure_sealevel;temperature;humidity
32237;BME280;18726;44.732;10.550;2023-04-19T00:02:08;101192.34;;;13.45;100.00
32237;BME280;18726;44.732;10.550;2023-04-19T00:05:12;101181.41;;;13.14;100.00
32237;BME280;18726;44.732;10.550;2023-04-19T00:08:15;101188.84;;;12.85;100.00
32237;BME280;18726;44.732;10.550;2023-04-19T00:11:19;101177.31;;;12.76;100.00
32237;BME280;18726;44.732;10.550;2023-04-19T00:14:22;101173.75;;;13.04;100.00
32237;BME280;18726;44.732;10.550;2023-04-19T00:17:25;101169.03;;;13.32;100.00
32237;BME280;18726;44.732;10.550;2023-04-19T00:20:29;101174.56;;;13.51;100.00
32237;BME280;18726;44.732;10.550;2023-04-19T00:23:33;101172.19;;;13.50;100.00
32237;BME280;18726;44.732;10.550;2023-04-19T00:26:37;101165.59;;;13.35;100.00
32237;BME280;18726;44.732;10.550;2023-04-19T00:29:40;101172.69;;;12.93;100.00
32237;BME280;18726;44.732;10.550;2023-04-19T00:32:44;101166.59;;;12.40;100.00
32237;BME280;18726;44.732;10.550;2023-04-19T00:35:48;101157.38;;;12.04;100.00
32237;BME280;18726;44.732;10.550;2023-04-19T00:38:51;101153.56;;;11.69;100.00
32237;BME280;18726;44.732;10.550;2023-04-19T00:41:54;101155.28;;;11.49;100.00
32237;BME280;18726;44.732;10.550;2023-04-19T00:44:59;101154.03;;;11.46;100.00
32237;BME280;18726;44.732;10.550;2023-04-19T00:48:03;101153.31;;;11.98;100.00
32237;BME280;18726;44.732;10.550;2023-04-19T00:51:06;101155.53;;;12.48;100.00
32237;BME280;18726;44.732;10.550;2023-04-19T00:54:12;101154.91;;;12.83;100.00
32237;BME280;18726;44.732;10.550;2023-04-19T00:57:16;101154.66;;;13.04;100.00
32237;BME280;18726;44.732;10.550;2023-04-19T01:00:20;101160.69;;;13.25;100.00
32237;BME280;18726;44.732;10.550;2023-04-19T01:03:24;101165.50;;;13.32;100.00
32237;BME280;18726;44.732;10.550;2023-04-19T01:06:29;101161.84;;;13.24;100.00
32237;BME280;18726;44.732;10.550;2023-04-19T01:09:32;101156.63;;;13.19;100.00
32237;BME280;18726;44.732;10.550;2023-04-19T01:12:36;101159.25;;;13.31;100.00
32237;BME280;18726;44.732;10.550;2023-04-19T01:15:39;101152.75;;;13.20;100.00
32237;BME280;18726;44.732;10.550;2023-04-19T01:18:43;101168.69;;;13.18;100.00
32237;BME280;18726;44.732;10.550;2023-04-19T01:21:46;101155.44;;;13.04;100.00
32237;BME280;18726;44.732;10.550;2023-04-19T01:24:50;101156.06;;;12.98;100.00
32237;BME280;18726;44.732;10.550;2023-04-19T01:27:54;101150.91;;;12.65;100.00
32237;BME280;18726;44.732;10.550;2023-04-19T01:31:00;101148.13;;;12.21;100.00
32237;BME280;18726;44.732;10.550;2023-04-19T01:34:03;101146.06;;;11.90;100.00
32237;BME280;18726;44.732;10.550;2023-04-19T01:37:07;101138.81;;;11.70;100.00
32237;BME280;18726;44.732;10.550;2023-04-19T01:40:10;101137.22;;;11.69;100.00
32237;BME280;18726;44.732;10.550;2023-04-19T01:43:15;101132.50;;;11.78;100.00
32237;BME280;18726;44.732;10.550;2023-04-19T01:46:20;101143.72;;;12.16;100.00
32237;BME280;18726;44.732;10.550;2023-04-19T01:49:23;101143.22;;;12.39;100.00
32237;BME280;18726;44.732;10.550;2023-04-19T01:52:27;101138.78;;;12.62;100.00
32237;BME280;18726;44.732;10.550;2023-04-19T01:55:30;101130.06;;;12.72;100.00
32237;BME280;18726;44.732;10.550;2023-04-19T01:58:33;101133.53;;;12.69;100.00
32237;BME280;18726;44.732;10.550;2023-04-19T02:01:36;101136.66;;;12.56;100.00
32237;BME280;18726;44.732;10.550;2023-04-19T02:04:40;101136.75;;;12.31;100.00
32237;BME280;18726;44.732;10.550;2023-04-19T02:07:44;101134.13;;;12.35;100.00
32237;BME280;18726;44.732;10.550;2023-04-19T02:10:47;101132.66;;;12.37;100.00
32237;BME280;18726;44.732;10.550;2023-04-19T02:13:50;101133.44;;;12.38;100.00
32237;BME280;18726;44.732;10.550;2023-04-19T02:16:54;101131.44;;;12.23;100.00
32237;BME280;18726;44.732;10.550;2023-04-19T02:19:58;101131.97;;;12.12;100.00
32237;BME280;18726;44.732;10.550;2023-04-19T02:23:03;101140.47;;;12.11;100.00
32237;BME280;18726;44.732;10.550;2023-04-19T02:26:06;101142.91;;;12.28;100.00
32237;BME280;18726;44.732;10.550;2023-04-19T02:29:11;101132.56;;;12.34;100.00
32237;BME280;18726;44.732;10.550;2023-04-19T02:32:14;101138.22;;;12.41;100.00
32237;BME280;18726;44.732;10.550;2023-04-19T02:35:18;101130.06;;;12.57;100.00
32237;BME280;18726;44.732;10.550;2023-04-19T02:38:22;101140.31;;;12.20;100.00
32237;BME280;18726;44.732;10.550;2023-04-19T02:41:25;101130.66;;;11.70;100.00
32237;BME280;18726;44.732;10.550;2023-04-19T02:44:28;101132.25;;;11.71;100.00
32237;BME280;18726;44.732;10.550;2023-04-19T02:47:32;101130.69;;;11.82;100.00
32237;BME280;18726;44.732;10.550;2023-04-19T02:50:36;101126.44;;;11.97;100.00
32237;BME280;18726;44.732;10.550;2023-04-19T02:53:39;101129.94;;;11.97;100.00
32237;BME280;18726;44.732;10.550;2023-04-19T02:56:43;101119.63;;;11.91;100.00
32237;BME280;18726;44.732;10.550;2023-04-19T02:59:46;101124.00;;;11.79;100.00
32237;BME280;18726;44.732;10.550;2023-04-19T03:02:51;101124.28;;;11.90;100.00
32237;BME280;18726;44.732;10.550;2023-04-19T03:05:55;101126.56;;;11.64;100.00
32237;BME280;18726;44.732;10.550;2023-04-19T03:08:59;101120.56;;;11.70;100.00
32237;BME280;18726;44.732;10.550;2023-04-19T03:12:04;101125.25;;;11.45;100.00
32237;BME280;18726;44.732;10.550;2023-04-19T03:15:08;101130.91;;;11.40;100.00
32237;BME280;18726;44.732;10.550;2023-04-19T03:18:11;101119.53;;;10.77;100.00
32237;BME280;18726;44.732;10.550;2023-04-19T03:21:18;101130.84;;;10.34;100.00
32237;BME280;18726;44.732;10.550;2023-04-19T03:24:27;101122.19;;;10.11;100.00
32237;BME280;18726;44.732;10.550;2023-04-19T03:27:33;101118.63;;;9.99;100.00
32237;BME280;18726;44.732;10.550;2023-04-19T03:30:40;101115.19;;;9.90;100.00
32237;BME280;18726;44.732;10.550;2023-04-19T03:33:44;101120.47;;;9.86;100.00
32237;BME280;18726;44.732;10.550;2023-04-19T03:36:49;101108.97;;;10.10;100.00
32237;BME280;18726;44.732;10.550;2023-04-19T03:39:53;101115.00;;;10.36;100.00
32237;BME280;18726;44.732;10.550;2023-04-19T03:43:03;101108.72;;;10.69;100.00
32237;BME280;18726;44.732;10.550;2023-04-19T03:46:09;101114.50;;;10.55;100.00
32237;BME280;18726;44.732;10.550;2023-04-19T03:49:12;101107.53;;;10.78;100.00
32237;BME280;18726;44.732;10.550;2023-04-19T03:52:17;101108.94;;;10.97;100.00
32237;BME280;18726;44.732;10.550;2023-04-19T03:55:21;101109.59;;;11.30;100.00
32237;BME280;18726;44.732;10.550;2023-04-19T03:58:24;101107.28;;;11.69;100.00
32237;BME280;18726;44.732;10.550;2023-04-19T04:01:35;101107.31;;;11.81;100.00
32237;BME280;18726;44.732;10.550;2023-04-19T04:04:43;101117.06;;;11.70;100.00
32237;BME280;18726;44.732;10.550;2023-04-19T04:07:47;101115.38;;;11.77;100.00
32237;BME280;18726;44.732;10.550;2023-04-19T04:10:52;101112.31;;;11.55;100.00
32237;BME280;18726;44.732;10.550;2023-04-19T04:13:56;101106.84;;;11.67;100.00
32237;BME280;18726;44.732;10.550;2023-04-19T04:17:04;101109.13;;;11.77;100.00
32237;BME280;18726;44.732;10.550;2023-04-19T04:20:07;101112.72;;;11.93;100.00
32237;BME280;18726;44.732;10.550;2023-04-19T04:23:13;101110.41;;;12.07;100.00
32237;BME280;18726;44.732;10.550;2023-04-19T04:26:22;101120.97;;;12.09;100.00
32237;BME280;18726;44.732;10.550;2023-04-19T04:29:46;101117.75;;;11.42;100.00
32237;BME280;18726;44.732;10.550;2023-04-19T04:32:49;101116.50;;;11.28;100.00
32237;BME280;18726;44.732;10.550;2023-04-19T04:35:54;101116.63;;;11.43;100.00
32237;BME280;18726;44.732;10.550;2023-04-19T04:39:00;101125.94;;;11.55;100.00
32237;BME280;18726;44.732;10.550;2023-04-19T04:42:05;101125.56;;;11.32;100.00
32237;BME280;18726;44.732;10.550;2023-04-19T04:45:10;101137.47;;;11.15;100.00
32237;BME280;18726;44.732;10.550;2023-04-19T04:48:16;101134.53;;;11.32;100.00
32237;BME280;18726;44.732;10.550;2023-04-19T04:51:20;101125.00;;;11.63;100.00
32237;BME280;18726;44.732;10.550;2023-04-19T04:54:26;101133.91;;;12.00;100.00
32237;BME280;18726;44.732;10.550;2023-04-19T04:57:31;101136.69;;;12.15;100.00
32237;BME280;18726;44.732;10.550;2023-04-19T05:00:36;101131.00;;;11.68;100.00
32237;BME280;18726;44.732;10.550;2023-04-19T05:03:44;101129.91;;;11.21;100.00
32237;BME280;18726;44.732;10.550;2023-04-19T05:06:52;101130.63;;;10.85;100.00
32237;BME280;18726;44.732;10.550;2023-04-19T05:10:00;101129.34;;;10.70;100.00
32237;BME280;18726;44.732;10.550;2023-04-19T05:13:10;101123.56;;;10.71;100.00
32237;BME280;18726;44.732;10.550;2023-04-19T05:16:16;101125.41;;;10.79;100.00
32237;BME280;18726;44.732;10.550;2023-04-19T05:19:22;101130.31;;;10.98;100.00
32237;BME280;18726;44.732;10.550;2023-04-19T05:22:32;101138.97;;;11.25;100.00
32237;BME280;18726;44.732;10.550;2023-04-19T05:25:44;101139.06;;;11.16;100.00
32237;BME280;18726;44.732;10.550;2023-04-19T05:28:48;101134.81;;;10.82;100.00
32237;BME280;18726;44.732;10.550;2023-04-19T05:32:01;101135.81;;;10.65;100.00
32237;BME280;18726;44.732;10.550;2023-04-19T05:35:12;101127.19;;;10.63;100.00
32237;BME280;18726;44.732;10.550;2023-04-19T05:38:16;101124.06;;;10.86;100.00
32237;BME280;18726;44.732;10.550;2023-04-19T05:41:21;101124.78;;;11.07;100.00
32237;BME280;18726;44.732;10.550;2023-04-19T05:44:24;101138.72;;;11.30;100.00
32237;BME280;18726;44.732;10.550;2023-04-19T05:47:28;101136.56;;;11.72;100.00
32237;BME280;18726;44.732;10.550;2023-04-19T05:50:58;101143.56;;;13.12;100.00
32237;BME280;18726;44.732;10.550;2023-04-19T05:54:20;101149.56;;;15.49;96.49
32237;BME280;18726;44.732;10.550;2023-04-19T05:57:24;101144.66;;;16.52;82.74
32237;BME280;18726;44.732;10.550;2023-04-19T06:00:28;101149.13;;;17.01;79.95
32237;BME280;18726;44.732;10.550;2023-04-19T06:03:39;101145.91;;;18.01;75.15
32237;BME280;18726;44.732;10.550;2023-04-19T06:06:43;101150.13;;;19.71;67.31
32237;BME280;18726;44.732;10.550;2023-04-19T06:09:51;101142.25;;;19.73;64.64
32237;BME280;18726;44.732;10.550;2023-04-19T06:12:54;101133.97;;;18.80;67.99
32237;BME280;18726;44.732;10.550;2023-04-19T06:15:58;101137.56;;;19.31;69.28
32237;BME280;18726;44.732;10.550;2023-04-19T06:19:01;101137.91;;;20.70;62.13
32237;BME280;18726;44.732;10.550;2023-04-19T06:22:04;101145.72;;;22.43;56.77
32237;BME280;18726;44.732;10.550;2023-04-19T06:25:08;101140.72;;;23.62;51.04
32237;BME280;18726;44.732;10.550;2023-04-19T06:28:11;101150.84;;;23.92;48.61
32237;BME280;18726;44.732;10.550;2023-04-19T06:31:14;101145.13;;;24.74;47.49
32237;BME280;18726;44.732;10.550;2023-04-19T06:34:17;101149.16;;;27.39;44.13
32237;BME280;18726;44.732;10.550;2023-04-19T06:37:20;101151.59;;;29.08;39.06
32237;BME280;18726;44.732;10.550;2023-04-19T06:40:25;101151.78;;;28.43;39.11
32237;BME280;18726;44.732;10.550;2023-04-19T06:43:28;101147.44;;;29.31;38.11
32237;BME280;18726;44.732;10.550;2023-04-19T06:46:32;101139.28;;;28.26;38.58
32237;BME280;18726;44.732;10.550;2023-04-19T06:49:35;101132.34;;;27.65;39.23
32237;BME280;18726;44.732;10.550;2023-04-19T06:52:38;101137.50;;;26.43;41.88
32237;BME280;18726;44.732;10.550;2023-04-19T06:55:42;101128.56;;;27.80;41.81
32237;BME280;18726;44.732;10.550;2023-04-19T06:58:45;101140.19;;;31.53;37.50
32237;BME280;18726;44.732;10.550;2023-04-19T07:01:48;101137.81;;;32.64;33.30
32237;BME280;18726;44.732;10.550;2023-04-19T07:04:52;101131.47;;;31.51;33.89
32237;BME280;18726;44.732;10.550;2023-04-19T07:07:55;101129.91;;;31.50;33.69
32237;BME280;18726;44.732;10.550;2023-04-19T07:10:58;101125.88;;;32.69;33.28
32237;BME280;18726;44.732;10.550;2023-04-19T07:14:02;101135.28;;;32.31;33.24
32237;BME280;18726;44.732;10.550;2023-04-19T07:17:05;101128.31;;;32.76;33.05
32237;BME280;18726;44.732;10.550;2023-04-19T07:20:08;101130.59;;;30.65;34.79
32237;BME280;18726;44.732;10.550;2023-04-19T07:23:12;101126.34;;;30.78;35.51
32237;BME280;18726;44.732;10.550;2023-04-19T07:26:15;101127.25;;;30.42;35.30
32237;BME280;18726;44.732;10.550;2023-04-19T07:29:18;101125.78;;;31.22;33.77
32237;BME280;18726;44.732;10.550;2023-04-19T07:32:21;101123.59;;;34.52;31.78
32237;BME280;18726;44.732;10.550;2023-04-19T07:35:24;101116.22;;;33.51;31.66
32237;BME280;18726;44.732;10.550;2023-04-19T07:38:28;101112.09;;;32.71;31.49
32237;BME280;18726;44.732;10.550;2023-04-19T07:41:32;101111.94;;;32.60;32.07
32237;BME280;18726;44.732;10.550;2023-04-19T07:44:35;101104.41;;;31.78;32.55
32237;BME280;18726;44.732;10.550;2023-04-19T07:47:38;101100.03;;;32.36;33.86
32237;BME280;18726;44.732;10.550;2023-04-19T07:50:42;101107.63;;;33.61;30.99
32237;BME280;18726;44.732;10.550;2023-04-19T07:53:45;101101.28;;;32.49;33.04
32237;BME280;18726;44.732;10.550;2023-04-19T07:56:49;101097.59;;;33.60;32.62
32237;BME280;18726;44.732;10.550;2023-04-19T07:59:53;101097.22;;;33.46;30.58
32237;BME280;18726;44.732;10.550;2023-04-19T08:03:00;101091.69;;;33.58;31.70
32237;BME280;18726;44.732;10.550;2023-04-19T08:06:04;101096.41;;;36.58;27.99
32237;BME280;18726;44.732;10.550;2023-04-19T08:09:07;101091.94;;;34.11;29.06
32237;BME280;18726;44.732;10.550;2023-04-19T08:12:11;101088.81;;;34.30;29.55
32237;BME280;18726;44.732;10.550;2023-04-19T08:15:14;101090.53;;;33.23;30.58
32237;BME280;18726;44.732;10.550;2023-04-19T08:18:18;101089.47;;;33.01;29.52
32237;BME280;18726;44.732;10.550;2023-04-19T08:21:21;101094.72;;;34.74;29.19
32237;BME280;18726;44.732;10.550;2023-04-19T08:24:25;101096.75;;;35.28;27.80
32237;BME280;18726;44.732;10.550;2023-04-19T08:27:29;101095.53;;;34.06;28.26
32237;BME280;18726;44.732;10.550;2023-04-19T08:30:32;101091.22;;;33.85;29.00
32237;BME280;18726;44.732;10.550;2023-04-19T08:33:35;101086.78;;;33.52;30.31
32237;BME280;18726;44.732;10.550;2023-04-19T08:36:39;101080.97;;;32.95;30.11
32237;BME280;18726;44.732;10.550;2023-04-19T08:39:42;101082.34;;;31.71;32.12
32237;BME280;18726;44.732;10.550;2023-04-19T08:42:45;101073.22;;;30.99;33.10
32237;BME280;18726;44.732;10.550;2023-04-19T08:45:49;101074.41;;;30.17;34.13
32237;BME280;18726;44.732;10.550;2023-04-19T08:48:53;101066.84;;;29.99;34.44
32237;BME280;18726;44.732;10.550;2023-04-19T08:51:57;101060.91;;;29.88;37.30
32237;BME280;18726;44.732;10.550;2023-04-19T08:55:02;101054.78;;;30.83;33.67
32237;BME280;18726;44.732;10.550;2023-04-19T08:58:06;101053.06;;;29.13;37.08
32237;BME280;18726;44.732;10.550;2023-04-19T09:01:09;101044.41;;;28.71;35.31
32237;BME280;18726;44.732;10.550;2023-04-19T09:04:14;101050.38;;;29.74;33.36
32237;BME280;18726;44.732;10.550;2023-04-19T09:07:26;101042.41;;;30.33;35.41
32237;BME280;18726;44.732;10.550;2023-04-19T09:10:30;101031.97;;;29.91;33.34
32237;BME280;18726;44.732;10.550;2023-04-19T09:13:33;101035.88;;;31.31;33.15
32237;BME280;18726;44.732;10.550;2023-04-19T09:16:40;101030.47;;;31.04;34.38
32237;BME280;18726;44.732;10.550;2023-04-19T09:19:44;101024.84;;;28.71;36.04
32237;BME280;18726;44.732;10.550;2023-04-19T09:23:01;101021.50;;;28.05;36.21
32237;BME280;18726;44.732;10.550;2023-04-19T09:26:04;101015.34;;;28.60;35.45
32237;BME280;18726;44.732;10.550;2023-04-19T09:29:11;101012.94;;;30.04;36.93
32237;BME280;18726;44.732;10.550;2023-04-19T09:32:19;101002.41;;;31.72;34.61
32237;BME280;18726;44.732;10.550;2023-04-19T09:35:22;101005.00;;;31.90;33.80
32237;BME280;18726;44.732;10.550;2023-04-19T09:38:47;100994.28;;;28.86;34.48
32237;BME280;18726;44.732;10.550;2023-04-19T09:41:52;100994.81;;;27.08;36.78
32237;BME280;18726;44.732;10.550;2023-04-19T09:44:55;100992.31;;;27.97;36.37
32237;BME280;18726;44.732;10.550;2023-04-19T09:48:00;100978.13;;;26.48;38.18
32237;BME280;18726;44.732;10.550;2023-04-19T09:51:04;100985.50;;;28.07;37.20
32237;BME280;18726;44.732;10.550;2023-04-19T09:54:09;100981.09;;;28.86;34.79
32237;BME280;18726;44.732;10.550;2023-04-19T09:57:13;100980.09;;;28.53;37.00
32237;BME280;18726;44.732;10.550;2023-04-19T10:00:16;100970.66;;;27.57;35.83
32237;BME280;18726;44.732;10.550;2023-04-19T10:03:20;100970.09;;;28.34;34.98
32237;BME280;18726;44.732;10.550;2023-04-19T10:06:24;100965.16;;;27.98;38.01
32237;BME280;18726;44.732;10.550;2023-04-19T10:09:29;100970.16;;;28.70;38.78
32237;BME280;18726;44.732;10.550;2023-04-19T10:12:32;100961.19;;;28.84;38.18
32237;BME280;18726;44.732;10.550;2023-04-19T10:15:38;100947.50;;;26.35;39.27
32237;BME280;18726;44.732;10.550;2023-04-19T10:18:43;100936.31;;;27.17;38.57
32237;BME280;18726;44.732;10.550;2023-04-19T10:21:47;100940.66;;;28.69;38.31
32237;BME280;18726;44.732;10.550;2023-04-19T10:25:06;100941.72;;;27.95;36.82
32237;BME280;18726;44.732;10.550;2023-04-19T10:28:10;100940.47;;;27.12;40.58
32237;BME280;18726;44.732;10.550;2023-04-19T10:31:13;100927.47;;;25.22;41.14
32237;BME280;18726;44.732;10.550;2023-04-19T10:34:34;100919.28;;;25.44;39.70
32237;BME280;18726;44.732;10.550;2023-04-19T10:37:39;100919.81;;;25.68;41.76
32237;BME280;18726;44.732;10.550;2023-04-19T10:44:09;100913.38;;;27.13;38.60
32237;BME280;18726;44.732;10.550;2023-04-19T10:47:13;100909.28;;;25.47;41.16
32237;BME280;18726;44.732;10.550;2023-04-19T10:53:59;100894.81;;;24.69;42.21
32237;BME280;18726;44.732;10.550;2023-04-19T10:57:03;100892.22;;;24.90;41.84
32237;BME280;18726;44.732;10.550;2023-04-19T11:00:20;100877.88;;;25.46;45.25
32237;BME280;18726;44.732;10.550;2023-04-19T11:07:04;100875.94;;;27.94;40.46
32237;BME280;18726;44.732;10.550;2023-04-19T11:10:08;100863.84;;;26.26;38.04
32237;BME280;18726;44.732;10.550;2023-04-19T11:13:12;100864.22;;;25.52;38.47
32237;BME280;18726;44.732;10.550;2023-04-19T11:16:15;100853.13;;;25.65;42.13
32237;BME280;18726;44.732;10.550;2023-04-19T11:19:19;100844.69;;;27.37;41.63
32237;BME280;18726;44.732;10.550;2023-04-19T11:22:23;100839.06;;;28.81;38.76
32237;BME280;18726;44.732;10.550;2023-04-19T11:25:27;100846.59;;;29.69;38.28
32237;BME280;18726;44.732;10.550;2023-04-19T11:28:33;100833.69;;;30.19;36.84
32237;BME280;18726;44.732;10.550;2023-04-19T11:31:36;100829.00;;;30.40;37.29
32237;BME280;18726;44.732;10.550;2023-04-19T11:34:40;100831.63;;;28.51;35.94
32237;BME280;18726;44.732;10.550;2023-04-19T11:37:43;100828.84;;;26.81;38.52
32237;BME280;18726;44.732;10.550;2023-04-19T11:40:56;100816.59;;;26.79;38.11
32237;BME280;18726;44.732;10.550;2023-04-19T11:44:00;100815.41;;;25.64;38.40
32237;BME280;18726;44.732;10.550;2023-04-19T11:47:03;100813.03;;;25.37;39.17
32237;BME280;18726;44.732;10.550;2023-04-19T11:53:29;100801.22;;;25.58;39.29
32237;BME280;18726;44.732;10.550;2023-04-19T11:56:33;100791.94;;;25.99;39.24
32237;BME280;18726;44.732;10.550;2023-04-19T11:59:37;100789.50;;;26.36;37.81
32237;BME280;18726;44.732;10.550;2023-04-19T12:02:42;100785.47;;;26.80;39.14
32237;BME280;18726;44.732;10.550;2023-04-19T12:05:52;100772.34;;;26.90;37.59
32237;BME280;18726;44.732;10.550;2023-04-19T12:08:56;100773.28;;;26.21;37.97
32237;BME280;18726;44.732;10.550;2023-04-19T12:11:59;100774.75;;;25.03;39.58
32237;BME280;18726;44.732;10.550;2023-04-19T12:15:04;100760.31;;;25.33;40.79
32237;BME280;18726;44.732;10.550;2023-04-19T12:18:09;100762.38;;;26.14;36.47
32237;BME280;18726;44.732;10.550;2023-04-19T12:24:29;100761.84;;;25.60;37.57
32237;BME280;18726;44.732;10.550;2023-04-19T12:27:32;100746.47;;;26.02;40.95
32237;BME280;18726;44.732;10.550;2023-04-19T12:30:36;100749.66;;;25.92;37.75
32237;BME280;18726;44.732;10.550;2023-04-19T12:33:39;100739.53;;;25.85;38.15
32237;BME280;18726;44.732;10.550;2023-04-19T12:36:43;100730.53;;;26.59;39.94
32237;BME280;18726;44.732;10.550;2023-04-19T12:39:46;100729.22;;;25.73;39.64
32237;BME280;18726;44.732;10.550;2023-04-19T12:42:50;100727.81;;;25.30;40.79
32237;BME280;18726;44.732;10.550;2023-04-19T12:45:53;100716.09;;;25.48;39.55
32237;BME280;18726;44.732;10.550;2023-04-19T12:48:57;100711.47;;;26.14;41.89
32237;BME280;18726;44.732;10.550;2023-04-19T12:52:00;100711.41;;;26.70;40.96
32237;BME280;18726;44.732;10.550;2023-04-19T12:55:04;100703.41;;;25.47;39.05
32237;BME280;18726;44.732;10.550;2023-04-19T12:58:07;100708.72;;;25.79;37.27
32237;BME280;18726;44.732;10.550;2023-04-19T13:01:11;100697.59;;;26.01;37.83
32237;BME280;18726;44.732;10.550;2023-04-19T13:04:14;100686.09;;;26.34;39.61
32237;BME280;18726;44.732;10.550;2023-04-19T13:07:18;100682.97;;;26.84;39.30
32237;BME280;18726;44.732;10.550;2023-04-19T13:10:21;100678.78;;;27.11;37.03
32237;BME280;18726;44.732;10.550;2023-04-19T13:13:24;100688.41;;;27.28;37.61
32237;BME280;18726;44.732;10.550;2023-04-19T13:16:28;100666.91;;;27.38;37.15
32237;BME280;18726;44.732;10.550;2023-04-19T13:19:32;100664.31;;;27.62;36.66
32237;BME280;18726;44.732;10.550;2023-04-19T13:22:35;100657.22;;;26.18;36.79
32237;BME280;18726;44.732;10.550;2023-04-19T13:25:38;100643.41;;;25.24;39.03
32237;BME280;18726;44.732;10.550;2023-04-19T13:28:42;100638.63;;;24.61;38.33
32237;BME280;18726;44.732;10.550;2023-04-19T13:31:45;100636.75;;;24.45;40.66
32237;BME280;18726;44.732;10.550;2023-04-19T13:34:49;100628.41;;;24.58;38.82
32237;BME280;18726;44.732;10.550;2023-04-19T13:37:52;100624.97;;;24.67;41.79
32237;BME280;18726;44.732;10.550;2023-04-19T13:40:55;100615.28;;;23.92;40.90
32237;BME280;18726;44.732;10.550;2023-04-19T13:43:59;100615.19;;;24.37;41.44
32237;BME280;18726;44.732;10.550;2023-04-19T13:47:02;100607.09;;;24.80;38.95
32237;BME280;18726;44.732;10.550;2023-04-19T13:50:05;100601.94;;;25.17;38.51
32237;BME280;18726;44.732;10.550;2023-04-19T13:53:09;100599.41;;;25.44;38.12
32237;BME280;18726;44.732;10.550;2023-04-19T13:56:12;100604.88;;;24.75;37.83
32237;BME280;18726;44.732;10.550;2023-04-19T13:59:16;100595.97;;;24.55;38.71
32237;BME280;18726;44.732;10.550;2023-04-19T14:02:20;100589.88;;;24.47;38.17
32237;BME280;18726;44.732;10.550;2023-04-19T14:05:24;100584.09;;;24.42;38.37
32237;BME280;18726;44.732;10.550;2023-04-19T14:08:27;100584.31;;;24.35;40.10
32237;BME280;18726;44.732;10.550;2023-04-19T14:11:31;100569.28;;;24.19;38.96
32237;BME280;18726;44.732;10.550;2023-04-19T14:14:34;100579.22;;;24.04;39.34
32237;BME280;18726;44.732;10.550;2023-04-19T14:17:38;100579.31;;;24.01;38.96
32237;BME280;18726;44.732;10.550;2023-04-19T14:20:41;100571.97;;;23.81;40.13
32237;BME280;18726;44.732;10.550;2023-04-19T14:23:45;100572.56;;;23.89;38.31
32237;BME280;18726;44.732;10.550;2023-04-19T14:26:48;100571.78;;;23.88;39.51
32237;BME280;18726;44.732;10.550;2023-04-19T14:29:52;100568.66;;;24.41;40.46
32237;BME280;18726;44.732;10.550;2023-04-19T14:32:55;100566.19;;;24.55;39.83
32237;BME280;18726;44.732;10.550;2023-04-19T14:35:59;100555.75;;;24.72;39.61
32237;BME280;18726;44.732;10.550;2023-04-19T14:39:03;100547.50;;;24.81;40.76
32237;BME280;18726;44.732;10.550;2023-04-19T14:42:06;100549.44;;;25.19;39.21
32237;BME280;18726;44.732;10.550;2023-04-19T14:45:10;100549.59;;;25.37;39.15
32237;BME280;18726;44.732;10.550;2023-04-19T14:48:13;100545.53;;;24.69;38.53
32237;BME280;18726;44.732;10.550;2023-04-19T14:51:17;100531.19;;;24.20;40.62
32237;BME280;18726;44.732;10.550;2023-04-19T14:54:20;100539.50;;;24.07;39.53
32237;BME280;18726;44.732;10.550;2023-04-19T14:57:24;100541.72;;;24.12;39.99
32237;BME280;18726;44.732;10.550;2023-04-19T15:00:28;100543.50;;;24.06;41.29
32237;BME280;18726;44.732;10.550;2023-04-19T15:03:31;100540.75;;;24.19;40.33
32237;BME280;18726;44.732;10.550;2023-04-19T15:06:34;100535.53;;;24.34;39.53
32237;BME280;18726;44.732;10.550;2023-04-19T15:09:38;100535.09;;;24.35;40.11
32237;BME280;18726;44.732;10.550;2023-04-19T15:12:43;100535.44;;;24.25;39.92
32237;BME280;18726;44.732;10.550;2023-04-19T15:15:46;100536.72;;;24.07;39.53
32237;BME280;18726;44.732;10.550;2023-04-19T15:18:50;100537.38;;;24.11;40.57
32237;BME280;18726;44.732;10.550;2023-04-19T15:21:54;100533.38;;;24.00;40.00
32237;BME280;18726;44.732;10.550;2023-04-19T15:24:59;100531.47;;;23.84;39.84
32237;BME280;18726;44.732;10.550;2023-04-19T15:28:03;100535.53;;;23.67;39.54
32237;BME280;18726;44.732;10.550;2023-04-19T15:31:07;100530.53;;;23.62;39.51
32237;BME280;18726;44.732;10.550;2023-04-19T15:34:11;100534.78;;;23.66;40.86
32237;BME280;18726;44.732;10.550;2023-04-19T15:37:14;100531.81;;;23.86;40.54
32237;BME280;18726;44.732;10.550;2023-04-19T15:40:17;100533.94;;;24.07;39.99
32237;BME280;18726;44.732;10.550;2023-04-19T15:43:21;100524.88;;;24.19;40.19
32237;BME280;18726;44.732;10.550;2023-04-19T15:46:25;100539.00;;;24.25;39.37
32237;BME280;18726;44.732;10.550;2023-04-19T15:49:28;100535.97;;;24.19;42.74
32237;BME280;18726;44.732;10.550;2023-04-19T15:52:31;100529.47;;;23.97;45.01
32237;BME280;18726;44.732;10.550;2023-04-19T15:55:35;100528.09;;;23.64;46.01
32237;BME280;18726;44.732;10.550;2023-04-19T15:58:40;100544.28;;;23.36;46.21
32237;BME280;18726;44.732;10.550;2023-04-19T16:01:44;100544.34;;;22.87;46.30
32237;BME280;18726;44.732;10.550;2023-04-19T16:04:48;100542.75;;;22.38;47.38